createdAt,value
2022-12-19T00:01:34.719Z,17.10
2022-12-19T00:04:07.965Z,17.20
2022-12-19T00:06:35.717Z,15.40
2022-12-19T00:09:02.271Z,17.37
2022-12-19T00:11:29.710Z,15.73
2022-12-19T00:13:56.490Z,15.90
2022-12-19T00:16:28.585Z,18.80
2022-12-19T00:18:57.817Z,17.90
2022-12-19T00:21:27.193Z,16.40
2022-12-19T00:23:53.755Z,16.00
2022-12-19T00:26:22.925Z,16.70
2022-12-19T00:28:55.233Z,16.17
2022-12-19T00:31:24.825Z,16.83
2022-12-19T00:33:51.406Z,17.20
2022-12-19T00:36:25.834Z,16.63
2022-12-19T00:38:53.597Z,15.47
2022-12-19T00:41:24.683Z,19.03
2022-12-19T00:43:55.583Z,17.07
2022-12-19T00:46:22.307Z,17.33
2022-12-19T00:48:49.209Z,16.93
2022-12-19T00:51:18.166Z,16.67
2022-12-19T00:53:46.097Z,18.10
2022-12-19T00:56:18.675Z,18.53
2022-12-19T00:58:47.286Z,17.43
2022-12-19T01:01:17.419Z,18.43
2022-12-19T01:04:04.427Z,17.93
2022-12-19T01:06:30.754Z,18.03
2022-12-19T01:08:58.215Z,15.43
2022-12-19T01:11:43.896Z,16.90
2022-12-19T01:14:14.949Z,18.03
2022-12-19T01:16:44.246Z,15.77
2022-12-19T01:19:11.071Z,17.87
2022-12-19T01:21:37.595Z,17.97
2022-12-19T01:24:05.809Z,18.70
2022-12-19T01:26:32.595Z,21.13
2022-12-19T01:28:59.139Z,19.87
2022-12-19T01:31:25.683Z,17.93
2022-12-19T01:33:52.162Z,19.13
2022-12-19T01:36:21.116Z,16.87
2022-12-19T01:38:47.820Z,19.60
2022-12-19T01:41:14.373Z,16.37
2022-12-19T01:43:59.253Z,19.63
2022-12-19T01:46:47.426Z,15.60
2022-12-19T01:49:19.150Z,17.83
2022-12-19T01:51:49.513Z,17.67
2022-12-19T01:54:20.521Z,18.90
2022-12-19T01:56:50.765Z,16.50
2022-12-19T01:59:24.998Z,15.80
2022-12-19T02:01:54.575Z,18.47
2022-12-19T02:04:21.371Z,17.67
2022-12-19T02:06:48.401Z,17.80
2022-12-19T02:09:15.563Z,18.07
2022-12-19T02:11:42.102Z,17.47
2022-12-19T02:14:08.678Z,17.53
2022-12-19T02:17:12.209Z,16.27
2022-12-19T02:19:58.920Z,15.97
2022-12-19T02:22:49.029Z,16.07
2022-12-19T02:25:24.547Z,15.40
2022-12-19T02:28:15.107Z,13.83
2022-12-19T02:31:00.144Z,15.80
2022-12-19T02:33:39.810Z,14.70
2022-12-19T02:36:17.832Z,14.10
2022-12-19T02:38:44.231Z,16.97
2022-12-19T02:41:15.823Z,16.60
2022-12-19T02:43:46.090Z,15.27
2022-12-19T02:46:15.821Z,16.03
2022-12-19T02:48:42.742Z,15.63
2022-12-19T02:51:09.585Z,15.60
2022-12-19T02:53:37.252Z,15.70
2022-12-19T02:56:20.266Z,16.40
2022-12-19T02:59:02.775Z,15.53
2022-12-19T03:01:50.052Z,14.83
2022-12-19T03:04:19.667Z,15.37
2022-12-19T03:06:51.350Z,15.13
2022-12-19T03:09:48.917Z,14.80
2022-12-19T03:12:21.612Z,15.47
2022-12-19T03:14:48.870Z,15.47
2022-12-19T03:17:15.559Z,13.90
2022-12-19T03:19:42.278Z,16.53
2022-12-19T03:22:08.845Z,14.70
2022-12-19T03:24:35.805Z,14.57
2022-12-19T03:27:39.909Z,14.60
2022-12-19T03:30:10.572Z,14.90
2022-12-19T03:32:38.872Z,14.27
2022-12-19T03:35:08.238Z,14.60
2022-12-19T03:37:38.849Z,14.20
2022-12-19T03:40:44.532Z,13.40
2022-12-19T03:43:12.681Z,13.37
2022-12-19T03:46:02.845Z,12.27
2022-12-19T03:48:48.412Z,12.30
2022-12-19T03:52:01.184Z,13.37
2022-12-19T03:54:30.368Z,13.77
2022-12-19T03:56:56.916Z,13.17
2022-12-19T03:59:26.338Z,13.60
2022-12-19T04:01:53.765Z,13.00
2022-12-19T04:04:21.773Z,12.90
2022-12-19T04:06:48.822Z,11.37
2022-12-19T04:09:22.182Z,12.20
2022-12-19T04:11:59.642Z,12.23
2022-12-19T04:14:29.929Z,10.50
2022-12-19T04:17:34.858Z,12.13
2022-12-19T04:20:03.408Z,13.47
2022-12-19T04:22:31.481Z,12.03
2022-12-19T04:24:59.420Z,12.23
2022-12-19T04:27:32.450Z,11.43
2022-12-19T04:29:59.549Z,12.20
2022-12-19T04:32:27.165Z,11.60
2022-12-19T04:34:53.678Z,11.47
2022-12-19T04:37:20.428Z,11.97
2022-12-19T04:39:47.030Z,12.10
2022-12-19T04:42:13.500Z,12.37
2022-12-19T04:44:39.954Z,12.13
2022-12-19T04:47:06.499Z,12.03
2022-12-19T04:49:32.993Z,12.40
2022-12-19T04:51:59.466Z,12.87
2022-12-19T04:54:25.905Z,12.13
2022-12-19T04:56:53.309Z,13.20
2022-12-19T04:59:19.910Z,12.73
2022-12-19T05:01:46.769Z,11.43
2022-12-19T05:04:13.328Z,13.80
2022-12-19T05:06:39.839Z,13.27
2022-12-19T05:09:06.410Z,14.07
2022-12-19T05:11:32.881Z,13.60
2022-12-19T05:13:59.855Z,12.07
2022-12-19T05:16:26.483Z,11.83
2022-12-19T05:18:54.186Z,13.33
2022-12-19T05:21:21.840Z,12.40
2022-12-19T05:24:26.161Z,12.53
2022-12-19T05:26:52.738Z,12.67
2022-12-19T05:29:57.068Z,12.40
2022-12-19T05:32:23.547Z,13.40
2022-12-19T05:34:50.063Z,12.97
2022-12-19T05:37:16.949Z,14.47
2022-12-19T05:39:43.483Z,13.77
2022-12-19T05:42:12.513Z,13.70
2022-12-19T05:44:39.489Z,13.10
2022-12-19T05:47:05.969Z,12.90
2022-12-19T05:49:32.530Z,12.90
2022-12-19T05:51:59.024Z,14.60
2022-12-19T05:54:26.040Z,14.50
2022-12-19T05:56:52.544Z,13.63
2022-12-19T05:59:19.052Z,13.20
2022-12-19T06:01:46.468Z,13.47
2022-12-19T06:04:13.168Z,12.30
2022-12-19T06:06:39.849Z,12.83
2022-12-19T06:09:06.408Z,13.27
2022-12-19T06:11:32.990Z,12.07
2022-12-19T06:13:59.529Z,12.43
2022-12-19T06:16:26.305Z,11.13
2022-12-19T06:18:53.094Z,11.17
2022-12-19T06:21:21.720Z,10.10
2022-12-19T06:23:49.007Z,10.50
2022-12-19T06:26:19.828Z,9.40
2022-12-19T06:28:47.891Z,10.67
2022-12-19T06:31:15.192Z,9.83
2022-12-19T06:33:41.920Z,9.40
2022-12-19T06:36:14.229Z,9.10
2022-12-19T06:38:40.741Z,9.13
2022-12-19T06:41:25.937Z,9.93
2022-12-19T06:43:53.879Z,8.03
2022-12-19T06:46:20.762Z,8.40
2022-12-19T06:48:47.777Z,8.63
2022-12-19T06:51:14.290Z,9.43
2022-12-19T06:53:40.802Z,8.97
2022-12-19T06:56:07.784Z,8.23
2022-12-19T06:58:34.858Z,8.33
2022-12-19T07:01:01.748Z,8.33
2022-12-19T07:03:39.265Z,8.30
2022-12-19T07:06:06.370Z,9.02
2022-12-19T07:08:33.048Z,9.37
2022-12-19T07:10:59.912Z,8.80
2022-12-19T07:13:27.409Z,9.20
2022-12-19T07:15:55.155Z,10.37
2022-12-19T07:18:21.771Z,8.20
2022-12-19T07:20:48.279Z,8.70
2022-12-19T07:23:18.096Z,8.27
2022-12-19T07:25:44.623Z,8.70
2022-12-19T07:28:11.232Z,9.17
2022-12-19T07:30:37.818Z,8.97
2022-12-19T07:33:04.491Z,8.03
2022-12-19T07:35:31.264Z,8.13
2022-12-19T07:38:05.031Z,8.70
2022-12-19T07:41:09.112Z,8.47
2022-12-19T07:43:35.579Z,8.40
2022-12-19T07:46:02.234Z,7.97
2022-12-19T07:48:30.868Z,8.30
2022-12-19T07:50:57.590Z,8.77
2022-12-19T07:53:24.214Z,9.40
2022-12-19T07:55:51.799Z,9.50
2022-12-19T07:58:18.321Z,8.90
2022-12-19T08:00:44.936Z,8.93
2022-12-19T08:03:11.623Z,8.83
2022-12-19T08:05:38.313Z,10.00
2022-12-19T08:08:05.033Z,10.03
2022-12-19T08:10:31.551Z,9.83
2022-12-19T08:12:58.052Z,9.40
2022-12-19T08:15:25.014Z,10.70
2022-12-19T08:17:51.504Z,10.63
2022-12-19T08:20:18.164Z,9.90
2022-12-19T08:22:44.856Z,10.10
2022-12-19T08:25:11.875Z,10.87
2022-12-19T08:27:38.415Z,10.03
2022-12-19T08:30:05.911Z,10.20
2022-12-19T08:32:32.457Z,10.13
2022-12-19T08:34:59.021Z,11.00
2022-12-19T08:37:25.690Z,10.20
2022-12-19T08:39:52.403Z,11.53
2022-12-19T08:42:19.050Z,11.00
2022-12-19T08:44:45.826Z,10.97
2022-12-19T08:47:12.380Z,10.40
2022-12-19T08:49:38.932Z,10.60
2022-12-19T08:52:05.392Z,9.93
2022-12-19T08:54:31.974Z,9.53
2022-12-19T08:56:58.469Z,10.37
2022-12-19T08:59:31.009Z,9.87
2022-12-19T09:02:00.033Z,10.47
2022-12-19T09:06:00.037Z,10.30
2022-12-19T09:07:15.413Z,10.57
2022-12-19T09:09:42.958Z,11.53
2022-12-19T09:12:50.153Z,10.47
2022-12-19T09:15:21.345Z,9.57
2022-12-19T09:17:48.025Z,11.43
2022-12-19T09:20:55.792Z,11.70
2022-12-19T09:23:23.489Z,10.83
2022-12-19T09:25:50.146Z,10.23
2022-12-19T09:28:32.054Z,9.57
2022-12-19T09:31:00.621Z,10.33
2022-12-19T09:33:28.129Z,10.50
2022-12-19T09:35:56.874Z,9.63
2022-12-19T09:38:25.545Z,10.53
2022-12-19T09:40:57.955Z,9.43
2022-12-19T09:43:47.929Z,9.40
2022-12-19T09:46:20.269Z,9.43
2022-12-19T09:48:54.397Z,9.90
2022-12-19T09:51:36.038Z,10.50
2022-12-19T09:54:07.622Z,9.30
2022-12-19T09:56:45.895Z,8.60
2022-12-19T09:59:26.153Z,9.20
2022-12-19T10:02:27.920Z,9.13
2022-12-19T10:05:30.450Z,9.40
2022-12-19T10:08:09.243Z,9.70
2022-12-19T10:12:37.534Z,8.87
2022-12-19T10:14:01.968Z,9.53
2022-12-19T10:16:34.436Z,8.83
2022-12-19T10:19:03.879Z,8.53
2022-12-19T10:22:19.159Z,8.77
2022-12-19T10:25:17.785Z,8.53
2022-12-19T10:27:58.570Z,9.67
2022-12-19T10:30:26.771Z,7.93
2022-12-19T10:33:06.734Z,8.60
2022-12-19T10:35:45.250Z,9.30
2022-12-19T10:38:18.865Z,8.10
2022-12-19T10:41:22.188Z,8.40
2022-12-19T10:43:48.925Z,8.67
2022-12-19T10:46:47.399Z,8.60
2022-12-19T10:49:20.130Z,9.00
2022-12-19T10:53:01.577Z,8.30
2022-12-19T10:55:43.295Z,9.40
2022-12-19T10:58:28.320Z,9.70
2022-12-19T11:01:16.956Z,8.80
2022-12-19T11:03:46.976Z,9.57
2022-12-19T11:06:48.701Z,8.80
2022-12-19T11:09:20.110Z,8.93
2022-12-19T11:14:34.644Z,8.10
2022-12-19T11:18:25.753Z,9.33
2022-12-19T11:25:42.830Z,9.60
2022-12-19T11:29:32.671Z,9.57
2022-12-19T11:30:05.875Z,8.80
2022-12-19T11:30:44.121Z,7.50
2022-12-19T11:30:47.278Z,9.83
2022-12-19T11:34:28.013Z,9.43
2022-12-19T11:37:03.718Z,8.10
2022-12-19T11:39:37.080Z,7.93
2022-12-19T11:42:26.707Z,9.03
2022-12-19T11:45:01.333Z,8.10
2022-12-19T11:47:42.397Z,8.70
2022-12-19T11:51:05.248Z,7.60
2022-12-19T11:53:47.700Z,7.73
2022-12-19T11:56:19.531Z,8.33
2022-12-19T11:58:49.752Z,7.80
2022-12-19T12:01:37.620Z,8.80
2022-12-19T12:04:18.989Z,8.50
2022-12-19T12:06:53.995Z,8.07
2022-12-19T12:15:40.935Z,9.00
2022-12-19T12:22:21.862Z,8.50
2022-12-19T12:24:10.198Z,9.20
2022-12-19T12:31:20.742Z,7.60
2022-12-19T12:31:26.086Z,7.53
2022-12-19T12:31:49.679Z,8.00
2022-12-19T12:32:02.054Z,7.07
2022-12-19T12:35:33.638Z,5.60
2022-12-19T12:40:38.374Z,6.47
2022-12-19T12:43:23.308Z,6.90
2022-12-19T12:45:49.924Z,6.87
2022-12-19T12:48:24.491Z,6.50
2022-12-19T12:50:55.164Z,6.97
2022-12-19T12:53:25.174Z,6.37
2022-12-19T12:55:54.945Z,6.47
2022-12-19T12:58:43.573Z,6.27
2022-12-19T13:01:17.981Z,6.03
2022-12-19T13:03:57.279Z,5.53
2022-12-19T13:06:33.065Z,5.80
2022-12-19T13:09:09.119Z,5.60
2022-12-19T13:11:56.759Z,6.10
2022-12-19T13:14:35.649Z,6.27
2022-12-19T13:17:05.678Z,6.07
2022-12-19T13:19:34.184Z,5.73
2022-12-19T13:22:03.662Z,5.90
2022-12-19T13:24:42.364Z,5.03
2022-12-19T13:27:21.339Z,5.70
2022-12-19T13:29:56.702Z,5.37
2022-12-19T13:32:23.883Z,6.13
2022-12-19T13:35:07.052Z,5.90
2022-12-19T13:39:48.076Z,5.03
2022-12-19T13:40:50.768Z,5.70
2022-12-19T13:43:41.748Z,6.70
2022-12-19T13:46:32.908Z,6.00
2022-12-19T13:49:25.406Z,6.00
2022-12-19T13:51:58.189Z,5.47
2022-12-19T13:54:35.836Z,5.87
2022-12-19T13:57:09.396Z,5.47
2022-12-19T13:59:38.276Z,5.00
2022-12-19T14:02:16.968Z,5.30
2022-12-19T14:04:44.498Z,5.47
2022-12-19T14:07:38.398Z,5.45
2022-12-19T14:11:33.286Z,5.53
2022-12-19T14:13:48.804Z,4.97
2022-12-19T14:16:16.277Z,5.20
2022-12-19T14:18:49.475Z,4.70
2022-12-19T14:22:04.657Z,5.40
2022-12-19T14:24:10.227Z,5.50
2022-12-19T14:28:21.198Z,4.60
2022-12-19T14:30:27.770Z,5.03
2022-12-19T14:33:40.660Z,5.13
2022-12-19T14:36:09.840Z,4.90
2022-12-19T14:39:25.381Z,4.73
2022-12-19T14:41:47.940Z,5.17
2022-12-19T14:52:08.361Z,4.80
2022-12-19T14:54:00.453Z,5.70
2022-12-19T14:54:24.008Z,4.70
2022-12-19T14:54:41.629Z,4.70
2022-12-19T14:59:08.367Z,5.33
2022-12-19T15:01:36.746Z,5.33
2022-12-19T15:04:48.981Z,5.00
2022-12-19T15:07:24.306Z,4.50
2022-12-19T15:11:02.550Z,5.63
2022-12-19T15:14:54.203Z,4.70
2022-12-19T15:16:01.769Z,5.60
2022-12-19T15:18:40.931Z,5.03
2022-12-19T15:21:11.165Z,5.17
2022-12-19T15:23:39.157Z,5.60
2022-12-19T15:26:20.807Z,4.70
2022-12-19T15:28:52.275Z,4.50
2022-12-19T15:31:56.213Z,4.93
2022-12-19T15:34:34.953Z,5.20
2022-12-19T15:37:03.676Z,5.67
2022-12-19T15:39:30.238Z,5.07
2022-12-19T15:42:00.398Z,4.73
2022-12-19T15:44:38.384Z,4.83
2022-12-19T15:47:07.503Z,4.90
2022-12-19T15:49:35.171Z,4.90
2022-12-19T15:52:02.751Z,4.70
2022-12-19T15:57:26.251Z,5.43
2022-12-19T15:59:53.179Z,4.90
2022-12-19T16:02:25.074Z,5.13
2022-12-19T16:04:55.546Z,5.50
2022-12-19T16:08:11.496Z,5.07
2022-12-19T16:10:38.242Z,4.50
2022-12-19T16:13:04.817Z,4.80
2022-12-19T16:15:34.034Z,5.57
2022-12-19T16:18:03.008Z,5.30
2022-12-19T16:20:32.427Z,4.50
2022-12-19T16:22:59.164Z,4.40
2022-12-19T16:25:51.916Z,4.30
2022-12-19T16:28:20.528Z,4.10
2022-12-19T16:30:47.415Z,4.67
2022-12-19T16:33:32.336Z,4.37
2022-12-19T16:36:07.268Z,4.73
2022-12-19T16:38:34.867Z,4.23
2022-12-19T16:41:04.369Z,4.90
2022-12-19T16:43:33.642Z,4.50
2022-12-19T16:46:01.977Z,4.70
2022-12-19T16:48:32.018Z,4.53
2022-12-19T16:50:59.193Z,3.60
2022-12-19T16:53:25.848Z,3.83
2022-12-19T16:55:53.536Z,4.30
2022-12-19T16:58:25.611Z,3.93
2022-12-19T17:00:54.749Z,4.43
2022-12-19T17:03:34.402Z,4.57
2022-12-19T17:06:01.126Z,4.63
2022-12-19T17:08:27.859Z,3.83
2022-12-19T17:10:54.783Z,4.10
2022-12-19T17:13:21.922Z,3.50
2022-12-19T17:15:55.973Z,4.43
2022-12-19T17:18:31.590Z,4.33
2022-12-19T17:20:58.233Z,3.77
2022-12-19T17:23:25.763Z,4.00
2022-12-19T17:25:54.703Z,3.80
2022-12-19T17:28:21.217Z,4.20
2022-12-19T17:30:59.631Z,3.90
2022-12-19T17:33:33.136Z,4.13
2022-12-19T17:36:04.085Z,4.03
2022-12-19T17:38:30.644Z,4.30
2022-12-19T17:40:57.171Z,4.37
2022-12-19T17:43:23.703Z,4.30
2022-12-19T17:45:51.127Z,3.90
2022-12-19T17:48:29.249Z,3.80
2022-12-19T17:50:56.166Z,4.17
2022-12-19T17:53:23.429Z,4.77
2022-12-19T17:55:50.409Z,4.00
2022-12-19T17:58:17.262Z,3.73
2022-12-19T18:00:44.945Z,4.30
2022-12-19T18:03:17.670Z,4.90
2022-12-19T18:05:44.403Z,5.10
2022-12-19T18:08:23.324Z,4.63
2022-12-19T18:10:51.302Z,4.40
2022-12-19T18:13:17.851Z,4.67
2022-12-19T18:15:44.680Z,4.70
2022-12-19T18:18:15.467Z,4.10
2022-12-19T18:20:43.676Z,6.20
2022-12-19T18:23:21.716Z,5.07
2022-12-19T18:25:48.779Z,5.03
2022-12-19T18:28:16.060Z,5.10
2022-12-19T18:30:43.930Z,5.20
2022-12-19T18:33:16.212Z,4.67
2022-12-19T18:35:45.069Z,5.03
2022-12-19T18:38:16.128Z,5.23
2022-12-19T18:40:43.144Z,4.97
2022-12-19T18:43:16.505Z,5.03
2022-12-19T18:45:47.009Z,5.20
2022-12-19T18:48:21.933Z,4.90
2022-12-19T18:50:48.948Z,5.30
2022-12-19T18:53:18.652Z,5.10
2022-12-19T18:55:45.183Z,5.73
2022-12-19T18:58:12.005Z,4.50
2022-12-19T19:00:39.654Z,4.53
2022-12-19T19:03:14.004Z,4.90
2022-12-19T19:05:41.061Z,5.30
2022-12-19T19:08:44.889Z,4.93
2022-12-19T19:11:11.448Z,4.63
2022-12-19T19:13:37.958Z,4.50
2022-12-19T19:16:15.255Z,4.63
2022-12-19T19:18:41.965Z,4.70
2022-12-19T19:21:12.414Z,4.33
2022-12-19T19:23:47.582Z,4.90
2022-12-19T19:26:14.349Z,4.50
2022-12-19T19:28:41.051Z,4.47
2022-12-19T19:31:10.375Z,5.10
2022-12-19T19:33:40.221Z,4.27
2022-12-19T19:36:12.597Z,4.47
2022-12-19T19:38:43.209Z,5.03
2022-12-19T19:41:09.905Z,5.00
2022-12-19T19:43:36.464Z,4.53
2022-12-19T19:46:03.186Z,4.80
2022-12-19T19:48:30.476Z,5.23
2022-12-19T19:50:57.052Z,4.30
2022-12-19T19:53:23.649Z,5.57
2022-12-19T19:56:04.691Z,5.20
2022-12-19T19:58:31.980Z,5.10
2022-12-19T20:00:58.769Z,5.30
2022-12-19T20:03:25.791Z,5.43
2022-12-19T20:06:00.166Z,4.87
2022-12-19T20:08:27.083Z,5.30
2022-12-19T20:10:57.882Z,4.73
2022-12-19T20:13:24.858Z,4.10
2022-12-19T20:16:28.682Z,4.93
2022-12-19T20:18:55.225Z,4.73
2022-12-19T20:21:22.818Z,5.13
2022-12-19T20:23:49.408Z,4.80
2022-12-19T20:26:17.265Z,4.67
2022-12-19T20:28:48.937Z,5.03
2022-12-19T20:31:19.198Z,5.30
2022-12-19T20:33:46.419Z,4.37
2022-12-19T20:36:13.769Z,4.50
2022-12-19T20:38:40.523Z,4.30
2022-12-19T20:41:07.303Z,4.60
2022-12-19T20:43:34.244Z,4.57
2022-12-19T20:46:09.870Z,3.53
2022-12-19T20:48:37.208Z,4.47
2022-12-19T20:51:05.139Z,4.67
2022-12-19T20:53:33.016Z,3.90
2022-12-19T20:56:00.635Z,3.80
2022-12-19T20:58:28.522Z,4.30
2022-12-19T21:00:56.497Z,3.67
2022-12-19T21:03:28.340Z,4.17
2022-12-19T21:05:56.781Z,3.70
2022-12-19T21:08:24.161Z,3.70
2022-12-19T21:10:50.983Z,4.30
2022-12-19T21:13:17.561Z,4.03
2022-12-19T21:15:44.470Z,3.30
2022-12-19T21:18:11.068Z,4.80
2022-12-19T21:21:22.039Z,4.20
2022-12-19T21:23:49.211Z,4.20
2022-12-19T21:26:16.012Z,3.50
2022-12-19T21:28:42.839Z,3.47
2022-12-19T21:31:15.324Z,3.73
2022-12-19T21:33:42.204Z,3.73
2022-12-19T21:36:11.407Z,3.50
2022-12-19T21:38:38.692Z,4.03
2022-12-19T21:41:06.688Z,3.77
2022-12-19T21:43:34.851Z,3.40
2022-12-19T21:46:06.491Z,3.87
2022-12-19T21:48:41.067Z,3.97
2022-12-19T21:51:08.385Z,3.47
2022-12-19T21:53:36.251Z,3.70
2022-12-19T21:56:08.495Z,3.50
2022-12-19T21:58:35.091Z,2.80
2022-12-19T22:01:09.994Z,4.07
2022-12-19T22:03:37.737Z,3.20
2022-12-19T22:06:05.217Z,3.47
2022-12-19T22:08:32.462Z,3.97
2022-12-19T22:10:59.389Z,3.73
2022-12-19T22:13:26.118Z,4.10
2022-12-19T22:15:52.700Z,3.73
2022-12-19T22:18:19.305Z,3.37
2022-12-19T22:20:46.462Z,3.63
2022-12-19T22:23:13.756Z,3.57
2022-12-19T22:25:40.583Z,3.33
2022-12-19T22:28:07.354Z,3.67
2022-12-19T22:30:36.867Z,3.20
2022-12-19T22:33:04.481Z,3.37
2022-12-19T22:35:33.557Z,3.30
2022-12-19T22:38:00.280Z,3.60
2022-12-19T22:40:26.798Z,3.87
2022-12-19T22:42:53.328Z,3.70
2022-12-19T22:45:19.856Z,3.10
2022-12-19T22:47:46.355Z,3.27
2022-12-19T22:50:13.047Z,4.27
2022-12-19T22:52:39.793Z,3.40
2022-12-19T22:55:44.466Z,3.23
2022-12-19T22:58:10.990Z,2.90
2022-12-19T23:00:37.570Z,4.00
2022-12-19T23:03:04.231Z,3.23
2022-12-19T23:05:30.874Z,3.27
2022-12-19T23:07:57.406Z,3.43
2022-12-19T23:10:23.916Z,2.83
2022-12-19T23:12:50.512Z,3.13
2022-12-19T23:15:17.082Z,3.40
2022-12-19T23:17:43.573Z,3.43
2022-12-19T23:20:10.385Z,4.10
2022-12-19T23:22:36.916Z,3.47
2022-12-19T23:25:03.755Z,3.10
2022-12-19T23:27:30.279Z,3.13
2022-12-19T23:29:57.300Z,3.07
2022-12-19T23:32:23.960Z,3.60
2022-12-19T23:34:50.606Z,3.20
2022-12-19T23:37:17.091Z,3.20
2022-12-19T23:39:43.585Z,3.57
2022-12-19T23:42:10.356Z,3.30
2022-12-19T23:44:36.951Z,2.67
2022-12-19T23:47:04.292Z,2.93
2022-12-19T23:49:32.028Z,2.90
2022-12-19T23:51:58.521Z,3.23
2022-12-19T23:54:25.086Z,2.97
2022-12-19T23:56:53.347Z,3.10
2022-12-19T23:59:19.921Z,3.00
